Central Valley, New York
Current Conditions -  °F | °C
As of 4:45 AM on Saturday 29 Nov 2014 (Local Time) from KSWF Reporting Station
Clear Clear  
Wind Chill:   Ceiling: Unl
Heat Index: 18°   Visibility: 10mi
Dew Point: 14°   Wind: 9mph
Humidity: 86%   Direction: 240°WSW
Pressure: 30.29"   Gusts: NA
Location:  41.33°N, 74.13°W
Report Text: KSWF 290945Z 24008KT 10SM SKC M08/M10 A3029
Loading
Personal Weather Stations






























Interactive Weather Map New forecast layout! Learn more

10-Day Weather Forecast

Advertisements
Track Severe Weather on mobile